Time;durP1;ratioP1;P1;durP2;ratioP2;P2;SDS_P1;SDS_P2;PMS_P1;PMS_P2;Temp;Humidity;BMP_temperature;BMP_pressure;BME280_temperature;BME280_humidity;BME280_pressure;Samples;Min_cycle;Max_cycle;Signal;HPM_P1;HPM_P2
2023/03/23 00:02:29;;;;;;;3.70;3.40;;;;;;;10.16;100.00;100117.63;5054716;28;20036;-74
2023/03/23 00:04:55;;;;;;;3.60;3.20;;;;;;;10.14;100.00;100107.22;5054454;28;20097;-74
2023/03/23 00:07:22;;;;;;;5.65;3.35;;;;;;;10.15;100.00;100105.44;5055301;28;20337;-74
2023/03/23 00:09:53;;;;;;;6.00;3.28;;;;;;;10.15;100.00;100115.91;5055750;28;20083;-74
2023/03/23 00:12:33;;;;;;;4.25;3.20;;;;;;;10.15;100.00;100110.69;5019382;28;20367;-74
2023/03/23 00:15:00;;;;;;;5.07;3.13;;;;;;;10.15;100.00;100110.69;5042759;28;20100;-74
2023/03/23 00:17:27;;;;;;;4.15;2.90;;;;;;;10.16;100.00;100102.75;5053228;28;20080;-74
2023/03/23 00:19:53;;;;;;;6.53;3.15;;;;;;;10.16;100.00;100091.44;5056328;28;20036;-74
2023/03/23 00:22:21;;;;;;;7.97;2.97;;;;;;;10.17;100.00;100103.63;5057373;28;20047;-74
2023/03/23 00:24:47;;;;;;;6.93;2.90;;;;;;;10.16;100.00;100084.44;5057459;28;20198;-74
2023/03/23 00:27:14;;;;;;;6.25;2.88;;;;;;;10.17;100.00;100086.16;5058302;28;20159;-74
2023/03/23 00:29:41;;;;;;;4.03;2.90;;;;;;;10.18;100.00;100093.06;5057153;28;20084;-74
2023/03/23 00:32:12;;;;;;;5.03;3.08;;;;;;;10.17;100.00;100103.63;5058112;28;20502;-74
2023/03/23 00:34:40;;;;;;;8.15;3.60;;;;;;;10.17;100.00;100087.94;5057052;28;20064;-74
2023/03/23 00:37:07;;;;;;;3.85;3.42;;;;;;;10.16;100.00;100089.66;5057718;28;20040;-74
2023/03/23 00:39:33;;;;;;;4.75;3.20;;;;;;;10.16;100.00;100079.22;5057511;28;20341;-74
2023/03/23 00:42:00;;;;;;;4.32;2.90;;;;;;;10.16;100.00;100073.13;5057897;28;20041;-74
2023/03/23 00:44:31;;;;;;;3.30;2.80;;;;;;;10.17;100.00;100080.06;5058236;28;20088;-74
2023/03/23 00:46:57;;;;;;;4.93;2.88;;;;;;;10.14;100.00;100067.97;5057832;28;20055;-74
2023/03/23 00:49:26;;;;;;;3.83;3.13;;;;;;;10.16;100.00;100067.91;5057347;28;20029;-74
2023/03/23 00:51:54;;;;;;;3.90;2.88;;;;;;;10.13;100.00;100066.31;5056205;28;20062;-74
2023/03/23 00:54:20;;;;;;;4.07;2.60;;;;;;;10.13;100.00;100074.16;5056766;28;20028;-74
2023/03/23 00:56:46;;;;;;;3.17;2.80;;;;;;;10.12;100.00;100082.91;5056620;28;20037;-74
2023/03/23 00:59:11;;;;;;;5.50;2.60;;;;;;;10.13;100.00;100081.13;5057411;28;20036;-74
2023/03/23 01:01:37;;;;;;;3.05;2.75;;;;;;;10.12;100.00;100080.28;5057119;28;20248;-74
2023/03/23 01:04:06;;;;;;;3.45;2.30;;;;;;;10.13;100.00;100079.38;5057683;28;20040;-74
2023/03/23 01:06:35;;;;;;;3.67;2.60;;;;;;;10.13;100.00;100063.69;5052511;28;20091;-74
2023/03/23 01:09:02;;;;;;;4.47;2.72;;;;;;;10.12;100.00;100051.50;5057172;28;20037;-74
2023/03/23 01:11:27;;;;;;;5.15;2.75;;;;;;;10.12;100.00;100054.13;5048808;28;20029;-74
2023/03/23 01:13:53;;;;;;;3.55;2.15;;;;;;;10.12;100.00;100051.50;5056908;28;20060;-74
2023/03/23 01:16:18;;;;;;;6.60;2.72;;;;;;;10.12;100.00;100038.44;5056936;28;20107;-74
2023/03/23 01:18:43;;;;;;;5.05;2.88;;;;;;;10.11;100.00;100036.72;5055521;28;20056;-74
2023/03/23 01:21:12;;;;;;;6.07;2.67;;;;;;;10.12;100.00;100053.28;5056464;28;20036;-74
2023/03/23 01:23:38;;;;;;;;;;;;;;;10.12;100.00;100042.84;5056776;28;20043;-74
2023/03/23 01:26:07;;;;;;;5.32;2.20;;;;;;;10.12;100.00;100038.44;5056981;28;20244;-74
2023/03/23 01:28:33;;;;;;;5.90;2.47;;;;;;;10.12;100.00;100042.84;5056742;28;20088;-74
2023/03/23 01:31:05;;;;;;;4.00;2.45;;;;;;;10.11;100.00;100041.97;5037320;28;20355;-74
2023/03/23 01:33:31;;;;;;;6.30;2.92;;;;;;;10.11;100.00;100035.88;5056653;28;20095;-74
2023/03/23 01:35:56;;;;;;;2.78;2.30;;;;;;;10.11;100.00;100047.19;5057126;28;20434;-74
2023/03/23 01:38:22;;;;;;;4.57;2.47;;;;;;;10.11;100.00;100041.97;5056808;28;20104;-74
2023/03/23 01:40:47;;;;;;;5.38;2.55;;;;;;;10.12;100.00;100032.38;5056081;28;20395;-74
2023/03/23 01:43:14;;;;;;;4.47;2.53;;;;;;;10.12;100.00;100035.81;5057218;28;20040;-74
2023/03/23 01:45:40;;;;;;;2.72;2.47;;;;;;;10.12;100.00;100030.59;5055819;28;20033;-74
2023/03/23 01:48:29;;;;;;;7.18;2.30;;;;;;;10.13;100.00;100034.91;5056895;28;20072;-74
2023/03/23 01:51:06;;;;;;;3.97;2.47;;;;;;;10.14;100.00;100026.13;5056508;28;20083;-74
2023/03/23 01:53:38;;;;;;;5.05;2.60;;;;;;;10.12;100.00;100016.66;5056794;28;20060;-74
2023/03/23 01:56:05;;;;;;;4.03;2.17;;;;;;;10.12;100.00;100017.50;5057286;28;20040;-74
2023/03/23 01:58:33;;;;;;;2.65;2.22;;;;;;;10.12;100.00;100016.66;5056564;28;20036;-74
2023/03/23 02:04:23;;;;;;;4.57;2.40;;;;;;;10.12;100.00;100016.66;5049919;28;20044;-74
2023/03/23 02:06:50;;;;;;;2.35;2.10;;;;;;;10.12;100.00;100022.75;5056952;28;20036;-74
2023/03/23 02:09:17;;;;;;;3.60;2.45;;;;;;;10.12;100.00;100021.91;5056278;28;20079;-74
2023/03/23 02:11:43;;;;;;;3.65;2.50;;;;;;;10.11;100.00;100021.03;5055746;28;20092;-74
2023/03/23 02:14:08;;;;;;;3.47;2.60;;;;;;;10.12;100.00;100016.66;5056074;28;20040;-74
2023/03/23 02:16:46;;;;;;;3.25;2.40;;;;;;;10.11;100.00;100025.44;5054770;28;20064;-74
2023/03/23 02:19:14;;;;;;;3.03;2.20;;;;;;;10.12;100.00;100027.97;5055917;28;20033;-74
2023/03/23 02:21:58;;;;;;;4.13;2.13;;;;;;;10.13;100.00;100026.19;5056425;28;20236;-74
2023/03/23 02:24:42;;;;;;;4.93;2.28;;;;;;;10.13;100.00;100024.44;5057349;28;20056;-74
2023/03/23 02:27:10;;;;;;;4.35;1.83;;;;;;;10.14;100.00;100017.44;5056418;28;20043;-74
2023/03/23 02:29:45;;;;;;;7.22;3.17;;;;;;;10.13;100.00;100011.34;5056612;28;20390;-74
2023/03/23 02:32:31;;;;;;;4.38;2.30;;;;;;;10.15;100.00;100013.88;5056891;28;20048;-74
2023/03/23 02:35:02;;;;;;;3.55;2.40;;;;;;;10.14;100.00;100012.19;5056136;28;20041;-74
2023/03/23 02:37:35;;;;;;;4.28;2.53;;;;;;;10.13;100.00;100013.97;5056410;28;20393;-74
2023/03/23 02:40:11;;;;;;;3.72;2.22;;;;;;;10.14;100.00;100022.66;5057040;28;20074;-74
2023/03/23 02:42:40;;;;;;;2.88;2.50;;;;;;;10.15;100.00;100012.13;5055706;28;20091;-74
2023/03/23 02:45:08;;;;;;;3.25;2.38;;;;;;;10.14;100.00;100009.56;5055989;28;20063;-74
2023/03/23 02:47:36;;;;;;;2.55;2.10;;;;;;;10.16;100.00;100021.66;5058949;28;20337;-74
2023/03/23 02:50:06;;;;;;;5.13;2.20;;;;;;;10.17;100.00;100018.13;5059114;28;20094;-74
2023/03/23 02:52:32;;;;;;;4.68;1.80;;;;;;;10.18;100.00;100018.94;5041394;28;20116;-74
2023/03/23 02:55:00;;;;;;;4.55;2.05;;;;;;;10.21;100.00;100020.59;5059520;28;20090;-74
2023/03/23 02:57:27;;;;;;;3.60;1.90;;;;;;;10.21;100.00;100012.72;5059285;28;20048;-74
2023/03/23 02:59:53;;;;;;;2.75;2.17;;;;;;;10.23;100.00;100016.94;5058713;28;20040;-74
2023/03/23 03:02:24;;;;;;;3.88;1.70;;;;;;;10.24;100.00;100020.41;5059079;28;20364;-74
2023/03/23 03:05:22;;;;;;;3.92;1.58;;;;;;;10.24;100.00;100017.78;5060015;28;20040;-74
2023/03/23 03:07:51;;;;;;;2.53;1.80;;;;;;;10.24;100.00;100012.56;5040053;28;20312;-74
2023/03/23 03:10:27;;;;;;;4.70;1.90;;;;;;;10.24;100.00;99994.22;5060379;28;20025;-74
2023/03/23 03:13:06;;;;;;;1.85;1.65;;;;;;;10.23;100.00;100008.25;5060208;28;20382;-73
2023/03/23 03:15:36;;;;;;;5.47;2.03;;;;;;;10.24;100.00;100007.31;5060423;28;20039;-73
2023/03/23 03:18:01;;;;;;;4.22;1.90;;;;;;;10.24;100.00;100012.56;5060189;28;20310;-74
2023/03/23 03:20:29;;;;;;;7.32;2.75;;;;;;;10.24;100.00;100004.69;5060101;28;20048;-74
2023/03/23 03:22:58;;;;;;;2.00;1.80;;;;;;;10.22;100.00;100007.41;5059951;28;20104;-74
2023/03/23 03:25:27;;;;;;;3.80;1.67;;;;;;;10.22;100.00;100001.31;5058563;28;20131;-74
2023/03/23 03:27:53;;;;;;;2.40;2.20;;;;;;;10.19;100.00;100013.66;5058063;28;20047;-74
2023/03/23 03:30:24;;;;;;;3.38;2.10;;;;;;;10.18;100.00;100018.94;5058421;28;20053;-74
2023/03/23 03:32:53;;;;;;;4.40;1.95;;;;;;;10.15;100.00;100022.59;5059423;28;20029;-74
2023/03/23 03:35:20;;;;;;;;;;;;;;;10.14;100.00;100007.81;5060603;28;20068;-74
2023/03/23 03:37:46;;;;;;;6.45;2.20;;;;;;;10.12;100.00;99995.75;5059242;28;20208;-74
2023/03/23 03:40:18;;;;;;;3.22;1.92;;;;;;;10.10;100.00;100011.50;5059504;28;20064;-74
2023/03/23 03:42:45;;;;;;;5.50;2.30;;;;;;;10.09;100.00;100009.81;5059384;28;20071;-74
2023/03/23 03:45:18;;;;;;;3.95;1.73;;;;;;;10.07;100.00;100022.13;5059451;28;20060;-74
2023/03/23 03:47:43;;;;;;;3.22;2.00;;;;;;;10.08;100.00;100009.91;5059398;28;20236;-74
2023/03/23 03:50:09;;;;;;;7.40;2.05;;;;;;;10.07;100.00;100010.81;5059872;28;20025;-74
2023/03/23 03:52:35;;;;;;;5.47;1.88;;;;;;;10.06;100.00;100009.13;5059358;28;20142;-74
2023/03/23 03:55:01;;;;;;;7.38;1.83;;;;;;;10.06;100.00;100024.81;5059256;28;20104;-74
2023/03/23 03:57:27;;;;;;;3.20;2.13;;;;;;;10.04;100.00;100022.31;5058948;28;20052;-74
2023/03/23 03:59:52;;;;;;;6.03;2.05;;;;;;;10.03;100.00;100017.97;5059308;28;20228;-75
2023/03/23 04:02:19;;;;;;;9.50;1.83;;;;;;;10.03;100.00;100015.38;5059041;28;20039;-74
2023/03/23 04:04:49;;;;;;;4.22;2.10;;;;;;;10.03;100.00;100031.06;5058408;28;20076;-74
2023/03/23 04:07:17;;;;;;;4.70;2.47;;;;;;;10.02;100.00;100029.34;5059060;28;20036;-74
2023/03/23 04:09:46;;;;;;;5.75;1.92;;;;;;;10.02;100.00;100031.97;5059164;28;20032;-74
2023/03/23 04:12:11;;;;;;;;;;;;;;;10.01;100.00;100032.06;5059717;28;20033;-74
2023/03/23 04:14:36;;;;;;;10.10;2.60;;;;;;;9.99;100.00;100037.38;5059054;28;19986;-74
2023/03/23 04:17:02;;;;;;;6.97;2.20;;;;;;;10.00;100.00;100039.06;5058481;28;20068;-74
2023/03/23 04:19:28;;;;;;;6.53;2.45;;;;;;;10.01;100.00;100037.31;5058283;28;20225;-74
2023/03/23 04:21:54;;;;;;;5.55;2.13;;;;;;;10.01;100.00;100032.06;5057191;28;20040;-74
2023/03/23 04:24:23;;;;;;;6.88;1.85;;;;;;;10.02;100.00;100028.53;5056968;28;20064;-74
2023/03/23 04:26:51;;;;;;;6.38;1.60;;;;;;;10.02;100.00;100054.69;5056932;28;20028;-74
2023/03/23 04:29:17;;;;;;;4.47;1.70;;;;;;;10.04;100.00;100048.47;5057126;28;20340;-74
2023/03/23 04:31:45;;;;;;;11.85;2.58;;;;;;;10.02;100.00;100060.75;5056898;28;20032;-74
2023/03/23 04:34:13;;;;;;;8.98;2.25;;;;;;;10.03;100.00;100069.47;5057354;28;20056;-74
2023/03/23 04:36:39;;;;;;;8.13;2.10;;;;;;;10.02;100.00;100068.59;5040707;28;20032;-74
2023/03/23 04:39:06;;;;;;;8.13;2.10;;;;;;;10.03;100.00;100080.75;5058610;28;20283;-74
2023/03/23 04:41:32;;;;;;;11.55;2.50;;;;;;;10.03;100.00;100072.06;5058293;28;20100;-74
2023/03/23 04:44:02;;;;;;;9.40;2.33;;;;;;;10.01;100.00;100076.53;5058535;28;20052;-74
2023/03/23 04:46:28;;;;;;;13.88;3.05;;;;;;;10.01;100.00;100076.53;5058208;28;20040;-74
2023/03/23 04:48:54;;;;;;;6.30;2.05;;;;;;;10.01;100.00;100072.16;5058335;28;20032;-74
2023/03/23 04:51:20;;;;;;;7.95;2.42;;;;;;;10.02;100.00;100071.22;5058711;28;20102;-74
2023/03/23 04:53:45;;;;;;;6.55;2.45;;;;;;;10.02;100.00;100079.06;5057745;28;20219;-74
2023/03/23 04:56:13;;;;;;;9.50;2.90;;;;;;;10.01;100.00;100082.63;5058269;28;20376;-74
2023/03/23 04:58:39;;;;;;;10.40;4.00;;;;;;;9.99;100.00;100068.78;5057881;28;20313;-74
2023/03/23 05:01:05;;;;;;;8.88;3.20;;;;;;;9.96;100.00;100087.22;5058310;28;20043;-74
2023/03/23 05:03:30;;;;;;;13.90;2.67;;;;;;;9.95;100.00;100086.38;5057768;28;20040;-74
2023/03/23 05:05:56;;;;;;;6.22;2.33;;;;;;;9.93;100.00;100083.00;5058197;28;20045;-74
2023/03/23 05:08:24;;;;;;;3.08;2.15;;;;;;;9.93;100.00;100077.78;5057425;28;20080;-74
2023/03/23 05:10:54;;;;;;;5.45;2.30;;;;;;;9.92;100.00;100065.59;5057258;28;20100;-74
2023/03/23 05:13:20;;;;;;;14.00;2.78;;;;;;;9.90;100.00;100072.69;5057900;28;20052;-74
2023/03/23 05:15:46;;;;;;;13.48;2.78;;;;;;;9.89;100.00;100081.44;5057416;28;20032;-74
2023/03/23 05:18:11;;;;;;;6.30;2.47;;;;;;;9.90;100.00;100082.31;5057675;28;20110;-74
2023/03/23 05:20:37;;;;;;;14.00;2.65;;;;;;;9.89;100.00;100088.44;5057615;28;20036;-74
2023/03/23 05:23:02;;;;;;;12.25;2.60;;;;;;;9.89;100.00;100085.84;5057291;28;20071;-74
2023/03/23 05:25:28;;;;;;;8.00;2.50;;;;;;;9.89;100.00;100091.06;5057592;28;20049;-74
2023/03/23 05:27:53;;;;;;;7.13;2.03;;;;;;;9.88;100.00;100092.00;5057545;28;20258;-74
2023/03/23 05:30:21;;;;;;;8.70;2.75;;;;;;;9.87;100.00;100091.13;5056747;28;20041;-74
2023/03/23 05:32:50;;;;;;;13.02;2.97;;;;;;;9.87;100.00;100096.38;5057463;28;20409;-74
2023/03/23 05:35:17;;;;;;;8.93;3.10;;;;;;;9.86;100.00;100110.38;5057257;28;20090;-74
2023/03/23 05:37:43;;;;;;;8.13;2.30;;;;;;;9.87;100.00;100119.91;5057149;28;20033;-74
2023/03/23 05:40:11;;;;;;;13.20;2.45;;;;;;;9.86;100.00;100105.16;5057542;28;20059;-74
2023/03/23 05:42:40;;;;;;;6.57;2.80;;;;;;;9.87;100.00;100112.06;5057383;28;20205;-74
2023/03/23 05:45:06;;;;;;;;;;;;;;;9.87;100.00;100116.44;5057763;28;20044;-74
2023/03/23 05:47:32;;;;;;;7.97;2.25;;;;;;;9.87;100.00;100119.06;5056809;28;19921;-74
2023/03/23 05:49:57;;;;;;;6.63;2.40;;;;;;;9.86;100.00;100133.94;5056986;28;20056;-74
2023/03/23 05:52:26;;;;;;;11.07;3.28;;;;;;;9.86;100.00;100122.59;5057102;28;20037;-74
2023/03/23 05:54:52;;;;;;;10.70;3.10;;;;;;;9.87;100.00;100132.16;5045411;28;20067;-74
2023/03/23 05:57:18;;;;;;;10.75;3.72;;;;;;;9.87;100.00;100129.53;5057310;28;20100;-74
2023/03/23 05:59:44;;;;;;;9.18;3.30;;;;;;;9.87;100.00;100132.16;5056603;28;20045;-74
2023/03/23 06:02:11;;;;;;;11.35;3.22;;;;;;;9.86;100.00;100140.91;5056918;28;20036;-74
2023/03/23 06:04:37;;;;;;;9.20;2.90;;;;;;;9.87;100.00;100140.84;5057257;28;20219;-74
2023/03/23 06:07:04;;;;;;;13.05;3.50;;;;;;;9.84;100.00;100138.38;5057091;28;20229;-74
2023/03/23 06:09:30;;;;;;;10.80;3.00;;;;;;;9.84;100.00;100141.00;5056890;28;20033;-74
2023/03/23 06:11:55;;;;;;;12.73;2.95;;;;;;;9.85;100.00;100150.53;5056722;28;20108;-74
2023/03/23 06:14:22;;;;;;;14.07;3.70;;;;;;;9.84;100.00;100166.28;5057133;28;20083;-74
2023/03/23 06:16:47;;;;;;;12.75;3.95;;;;;;;9.83;100.00;100159.38;5056995;28;20387;-74
2023/03/23 06:19:13;;;;;;;12.18;3.72;;;;;;;9.84;100.00;100164.53;5056445;28;20041;-74
2023/03/23 06:21:38;;;;;;;17.48;3.35;;;;;;;9.86;100.00;100169.66;5059997;28;20044;-74
2023/03/23 06:24:04;;;;;;;13.40;3.28;;;;;;;9.86;100.00;100164.44;5061254;28;20104;-74
2023/03/23 06:26:36;;;;;;;19.50;4.03;;;;;;;9.87;100.00;100172.22;5060478;28;20112;-74
2023/03/23 06:29:10;;;;;;;8.18;2.92;;;;;;;9.88;100.00;100170.47;5060981;28;20036;-74
2023/03/23 06:31:57;;;;;;;19.27;3.55;;;;;;;9.88;100.00;100165.25;5060305;28;20041;-74
2023/03/23 06:34:23;;;;;;;15.38;3.10;;;;;;;9.88;100.00;100178.31;5050015;28;20278;-74
2023/03/23 06:36:48;;;;;;;12.00;3.05;;;;;;;9.87;100.00;100179.22;5060382;28;20079;-74
2023/03/23 06:39:13;;;;;;;10.77;3.20;;;;;;;9.86;100.00;100169.66;5060741;28;20111;-74
2023/03/23 06:41:39;;;;;;;15.73;2.70;;;;;;;9.86;100.00;100175.78;5060958;28;20078;-74
2023/03/23 06:44:06;;;;;;;11.57;2.28;;;;;;;9.87;100.00;100174.00;5042730;28;20240;-74
2023/03/23 06:46:32;;;;;;;11.95;3.00;;;;;;;9.87;100.00;100180.06;5060401;28;20344;-74
2023/03/23 06:48:57;;;;;;;16.30;2.90;;;;;;;9.88;100.00;100181.78;5060142;28;20058;-74
2023/03/23 06:51:23;;;;;;;12.18;2.30;;;;;;;9.86;100.00;100173.16;5060565;28;20063;-74
2023/03/23 06:53:49;;;;;;;9.13;2.67;;;;;;;9.89;100.00;100182.59;5060991;28;20047;-74
2023/03/23 06:56:14;;;;;;;11.55;3.08;;;;;;;9.90;100.00;100179.09;5059826;28;20104;-74
2023/03/23 06:58:41;;;;;;;11.88;2.67;;;;;;;9.91;100.00;100184.22;5059642;28;20045;-74
2023/03/23 07:01:08;;;;;;;7.88;2.47;;;;;;;9.91;100.00;100192.06;5059873;28;20396;-74
2023/03/23 07:03:33;;;;;;;7.55;2.25;;;;;;;9.91;100.00;100183.38;5058414;28;20037;-74
2023/03/23 07:05:59;;;;;;;10.68;2.25;;;;;;;9.89;100.00;100187.84;5060070;28;20224;-74
2023/03/23 07:08:26;;;;;;;7.55;2.00;;;;;;;9.89;100.00;100195.69;5059499;28;20041;-74
2023/03/23 07:10:52;;;;;;;13.50;2.33;;;;;;;9.87;100.00;100190.53;5060728;28;20324;-74
2023/03/23 07:13:18;;;;;;;6.85;2.20;;;;;;;9.87;100.00;100182.69;5061647;28;20108;-74
2023/03/23 07:15:44;;;;;;;11.85;2.80;;;;;;;9.86;100.00;100181.00;5059961;28;20041;-74
2023/03/23 07:18:10;;;;;;;10.25;2.53;;;;;;;9.86;100.00;100185.38;5062860;28;20222;-74
2023/03/23 07:20:35;;;;;;;8.63;2.15;;;;;;;9.86;100.00;100209.78;5059083;28;20055;-74
2023/03/23 07:23:01;;;;;;;9.20;2.60;;;;;;;9.86;100.00;100199.31;5057726;28;20392;-74
2023/03/23 07:25:27;;;;;;;10.25;2.38;;;;;;;9.85;100.00;100196.75;5059160;28;20032;-74
2023/03/23 07:27:52;;;;;;;12.95;2.78;;;;;;;9.87;100.00;100197.53;5056446;28;20060;-74
2023/03/23 07:30:18;;;;;;;10.80;2.78;;;;;;;9.84;100.00;100198.53;5059202;28;20025;-74
2023/03/23 07:32:43;;;;;;;18.20;3.05;;;;;;;9.83;100.00;100203.84;5058712;28;20040;-74
2023/03/23 07:35:09;;;;;;;8.25;2.10;;;;;;;9.82;100.00;100189.88;5058382;28;20048;-74
2023/03/23 07:37:35;;;;;;;12.40;2.90;;;;;;;9.82;100.00;100189.06;5055686;28;20169;-74
2023/03/23 07:40:14;;;;;;;15.15;2.45;;;;;;;9.82;100.00;100202.13;5057607;28;20045;-74
2023/03/23 07:42:40;;;;;;;12.40;2.70;;;;;;;9.82;100.00;100194.28;5058173;28;20020;-74
2023/03/23 07:45:06;;;;;;;17.25;3.10;;;;;;;9.83;100.00;100203.84;5059525;28;20218;-74
2023/03/23 07:47:31;;;;;;;13.43;2.25;;;;;;;9.83;100.00;100201.22;5057868;28;20052;-74
2023/03/23 07:49:57;;;;;;;13.18;3.20;;;;;;;9.85;100.00;100204.59;5058756;28;20108;-74
2023/03/23 07:52:23;;;;;;;13.88;2.88;;;;;;;9.86;100.00;100211.50;5058192;28;20073;-74
2023/03/23 07:54:49;;;;;;;11.82;2.47;;;;;;;9.88;100.00;100207.09;5057921;28;20048;-74
2023/03/23 07:57:14;;;;;;;13.27;2.80;;;;;;;9.88;100.00;100214.94;5057486;28;20037;-74
2023/03/23 07:59:40;;;;;;;10.55;2.38;;;;;;;9.88;100.00;100221.00;5057585;28;20064;-74
2023/03/23 08:02:09;;;;;;;8.90;2.40;;;;;;;9.87;100.00;100221.91;5057451;28;20321;-74
2023/03/23 08:04:37;;;;;;;10.98;3.13;;;;;;;9.88;100.00;100221.00;5057289;28;20044;-74
2023/03/23 08:07:04;;;;;;;12.77;2.63;;;;;;;9.88;100.00;100228.84;5057765;28;20432;-74
2023/03/23 08:09:30;;;;;;;7.80;2.92;;;;;;;9.88;100.00;100236.69;5057736;28;20239;-74
2023/03/23 08:11:56;;;;;;;11.27;3.25;;;;;;;9.90;100.00;100236.63;5046507;28;20045;-74
2023/03/23 08:14:22;;;;;;;12.68;3.00;;;;;;;9.91;100.00;100231.28;5036330;28;20116;-74
2023/03/23 08:16:48;;;;;;;8.65;2.33;;;;;;;9.91;100.00;100236.53;5054564;28;20029;-74
2023/03/23 08:19:14;;;;;;;11.52;2.70;;;;;;;9.93;100.00;100242.56;5037997;28;20033;-74
2023/03/23 08:21:39;;;;;;;8.30;2.90;;;;;;;9.93;100.00;100234.72;5040788;28;20037;-74
2023/03/23 08:24:06;;;;;;;12.23;2.60;;;;;;;9.95;100.00;100234.63;5035122;28;20049;-74
2023/03/23 08:26:31;;;;;;;12.40;3.25;;;;;;;9.94;100.00;100249.47;5039783;28;20036;-74
2023/03/23 08:28:57;;;;;;;8.60;3.22;;;;;;;9.94;100.00;100244.25;5037461;28;20041;-74
2023/03/23 08:31:23;;;;;;;18.90;4.05;;;;;;;9.96;100.00;100252.03;5035117;28;20103;-74
2023/03/23 08:33:49;;;;;;;14.48;4.10;;;;;;;9.96;100.00;100247.63;5034317;28;20038;-74
2023/03/23 08:36:14;;;;;;;13.70;4.35;;;;;;;9.99;100.00;100255.34;5036623;28;20106;-74
2023/03/23 08:38:39;;;;;;;14.90;3.70;;;;;;;10.01;100.00;100257.88;5034378;28;20090;-74
2023/03/23 08:41:07;;;;;;;16.70;3.92;;;;;;;10.01;100.00;100254.44;5042409;28;20343;-74
2023/03/23 08:43:34;;;;;;;21.15;3.45;;;;;;;10.02;100.00;100264.78;5038763;28;20040;-74
2023/03/23 08:45:59;;;;;;;10.07;3.08;;;;;;;10.03;100.00;100279.59;5041500;28;20041;-74
2023/03/23 08:48:25;;;;;;;17.42;4.30;;;;;;;10.04;100.00;100268.22;5040761;28;20048;-74
2023/03/23 08:50:51;;;;;;;11.30;3.28;;;;;;;10.05;100.00;100263.81;5033690;28;20052;-74
2023/03/23 08:53:20;;;;;;;14.73;3.15;;;;;;;10.05;100.00;100276.91;5033611;28;20033;-74
2023/03/23 08:55:46;;;;;;;17.40;3.45;;;;;;;10.05;100.00;100272.50;5035559;28;20115;-74
2023/03/23 08:58:11;;;;;;;14.65;2.53;;;;;;;10.06;100.00;100263.75;5032233;28;20033;-74
2023/03/23 09:00:36;;;;;;;7.15;2.03;;;;;;;10.07;100.00;100252.34;5035969;28;20075;-74
2023/03/23 09:03:03;;;;;;;14.15;3.17;;;;;;;10.08;100.00;100259.28;5034242;28;20048;-74
2023/03/23 09:05:28;;;;;;;11.25;2.80;;;;;;;10.09;100.00;100258.34;5033422;28;20052;-74
2023/03/23 09:07:58;;;;;;;24.92;3.20;;;;;;;10.10;100.00;100261.84;5034448;28;20056;-74
2023/03/23 09:10:25;;;;;;;12.35;2.50;;;;;;;10.10;99.73;100262.69;5033870;28;20092;-74
2023/03/23 09:12:52;;;;;;;16.80;3.30;;;;;;;10.12;100.00;100263.44;5032962;28;20037;-74
2023/03/23 09:15:18;;;;;;;13.05;2.58;;;;;;;10.12;98.53;100263.44;5033183;28;20048;-75
2023/03/23 09:17:49;;;;;;;16.45;2.65;;;;;;;10.15;98.77;100262.44;5047551;28;20060;-74
2023/03/23 09:20:20;;;;;;;12.55;3.00;;;;;;;10.19;96.14;100275.31;5056793;28;20032;-74
2023/03/23 09:22:48;;;;;;;15.10;3.15;;;;;;;10.21;96.82;100267.41;5053935;28;20410;-74
2023/03/23 09:25:18;;;;;;;15.50;3.50;;;;;;;10.23;96.29;100264.72;5058071;28;20336;-74
2023/03/23 09:27:46;;;;;;;15.50;2.47;;;;;;;10.23;96.21;100267.31;5057252;28;20040;-74
2023/03/23 09:30:14;;;;;;;19.70;2.83;;;;;;;10.23;96.63;100264.72;5057332;28;20036;-74
2023/03/23 09:32:40;;;;;;;13.50;3.40;;;;;;;10.21;96.99;100274.41;5056936;28;20075;-74
2023/03/23 09:35:08;;;;;;;23.40;3.13;;;;;;;10.21;98.14;100279.63;5057071;28;20037;-74
2023/03/23 09:37:35;;;;;;;19.20;3.38;;;;;;;10.18;97.42;100281.47;5069309;28;20209;-74
2023/03/23 09:40:05;;;;;;;19.35;3.05;;;;;;;10.18;95.41;100280.63;5056690;28;20052;-74
2023/03/23 09:42:46;;;;;;;22.08;3.55;;;;;;;10.20;97.01;100278.78;5056497;28;20044;-74
2023/03/23 09:45:31;;;;;;;15.65;3.13;;;;;;;10.21;98.04;100292.72;5057021;28;20040;-74
2023/03/23 09:48:03;;;;;;;17.40;3.90;;;;;;;10.22;98.71;100297.03;5041208;28;20044;-74
2023/03/23 09:50:32;;;;;;;17.40;3.17;;;;;;;10.22;98.68;100303.09;5040562;28;20332;-74
2023/03/23 09:53:17;;;;;;;20.83;4.00;;;;;;;10.22;98.70;100302.25;5041707;28;20044;-74
2023/03/23 09:55:42;;;;;;;15.55;2.83;;;;;;;10.22;99.27;100302.25;5042845;28;20033;-74
2023/03/23 09:58:20;;;;;;;16.08;2.97;;;;;;;10.21;96.32;100308.44;5040089;28;20031;-74
2023/03/23 10:01:02;;;;;;;19.00;3.95;;;;;;;10.28;95.21;100307.22;5036380;28;20589;-74
2023/03/23 10:03:37;;;;;;;22.83;3.85;;;;;;;10.32;97.02;100307.00;5040976;28;20096;-74
2023/03/23 10:06:03;;;;;;;23.75;3.53;;;;;;;10.34;97.34;100306.94;5041242;28;20270;-74
2023/03/23 10:08:32;;;;;;;19.58;3.47;;;;;;;10.37;97.11;100312.88;5040445;28;20415;-74
2023/03/23 10:11:02;;;;;;;19.27;3.38;;;;;;;10.39;97.10;100312.81;5040897;28;20045;-74
2023/03/23 10:13:37;;;;;;;27.67;3.60;;;;;;;10.40;96.10;100317.09;5041651;28;20351;-74
2023/03/23 10:16:04;;;;;;;21.02;3.40;;;;;;;10.41;96.02;100313.56;5042133;28;20033;-74
2023/03/23 10:18:38;;;;;;;22.23;3.45;;;;;;;10.46;94.17;100326.44;5033523;28;20364;-74
2023/03/23 10:21:04;;;;;;;13.77;2.47;;;;;;;10.53;92.10;100331.31;5029620;28;20680;-74
2023/03/23 10:23:43;;;;;;;18.13;3.13;;;;;;;10.56;93.03;100323.28;5034853;28;20303;-74
2023/03/23 10:26:30;;;;;;;16.05;3.38;;;;;;;10.59;93.92;100324.94;5030712;28;20052;-74
2023/03/23 10:29:02;;;;;;;23.13;3.22;;;;;;;10.65;90.80;100329.00;5029365;28;20869;-74
2023/03/23 10:31:37;;;;;;;23.65;3.08;;;;;;;10.78;90.11;100329.25;5030857;28;20033;-74
2023/03/23 10:34:10;;;;;;;22.23;2.95;;;;;;;10.84;89.97;100318.47;5030132;28;20107;-74
2023/03/23 10:36:42;;;;;;;14.40;2.83;;;;;;;10.90;91.92;100326.88;5029063;28;20104;-74
2023/03/23 10:39:12;;;;;;;16.02;3.03;;;;;;;10.93;93.35;100315.38;5032284;28;20284;-74
2023/03/23 10:41:38;;;;;;;17.55;3.22;;;;;;;10.93;93.03;100312.75;5029910;28;20315;-74
2023/03/23 10:44:12;;;;;;;14.25;3.90;;;;;;;10.93;92.54;100326.72;5030729;28;20067;-74
2023/03/23 10:46:58;;;;;;;18.83;3.05;;;;;;;10.94;93.70;100336.25;5030590;28;20028;-74
2023/03/23 10:49:27;;;;;;;14.93;3.08;;;;;;;10.93;94.82;100324.09;5030176;28;20096;-74
2023/03/23 10:52:12;;;;;;;;;;;;;;;10.95;94.18;100329.25;5034889;28;20379;-74
2023/03/23 10:54:46;;;;;;;17.67;2.67;;;;;;;10.97;93.49;100331.78;5029757;28;20166;-74
2023/03/23 10:57:21;;;;;;;16.40;2.90;;;;;;;10.99;94.15;100319.47;5026738;28;20098;-74
2023/03/23 10:59:46;;;;;;;18.80;2.97;;;;;;;11.01;89.09;100325.50;5030591;28;20033;-74
2023/03/23 11:02:18;;;;;;;30.30;3.97;;;;;;;11.06;88.29;100319.09;5029686;28;20115;-74
2023/03/23 11:04:57;;;;;;;15.57;3.10;;;;;;;11.08;90.77;100316.41;5029518;28;20033;-73
2023/03/23 11:07:28;;;;;;;22.00;3.38;;;;;;;11.08;90.35;100316.41;5030450;28;20135;-74
2023/03/23 11:09:56;;;;;;;19.20;2.70;;;;;;;11.09;90.69;100323.31;5033497;28;20036;-74
2023/03/23 11:12:22;;;;;;;13.70;2.93;;;;;;;11.08;91.32;100316.41;5033983;28;20033;-74
2023/03/23 11:14:48;;;;;;;15.07;3.00;;;;;;;11.10;88.66;100310.13;5035031;28;20355;-74
2023/03/23 11:17:27;;;;;;;10.25;2.85;;;;;;;11.21;87.14;100335.81;5033877;28;20150;-74
2023/03/23 11:19:56;;;;;;;13.70;2.58;;;;;;;11.34;84.71;100330.78;5037504;28;20033;-74
2023/03/23 11:22:32;;;;;;;15.80;2.50;;;;;;;11.34;87.03;100318.50;5033844;28;20047;-74
2023/03/23 11:25:05;;;;;;;22.17;3.63;;;;;;;11.32;89.30;100328.22;5035044;28;20040;-74
2023/03/23 11:27:32;;;;;;;15.20;2.70;;;;;;;11.29;89.07;100311.81;5033750;28;20372;-74
2023/03/23 11:30:10;;;;;;;23.15;2.67;;;;;;;11.27;90.37;100318.91;5031317;28;20079;-74